sensor_id;sensor_type;location;lat;lon;timestamp;P1;durP1;ratioP1;P2;durP2;ratioP2
142;SDS011;63667;49.046;8.468;2024-01-30T00:00:41;57.33;;;26.00;;
142;SDS011;63667;49.046;8.468;2024-01-30T00:03:08;60.97;;;27.73;;
142;SDS011;63667;49.046;8.468;2024-01-30T00:05:34;68.83;;;27.70;;
142;SDS011;63667;49.046;8.468;2024-01-30T00:08:01;61.63;;;27.37;;
142;SDS011;63667;49.046;8.468;2024-01-30T00:10:27;63.23;;;27.83;;
142;SDS011;63667;49.046;8.468;2024-01-30T00:12:53;64.20;;;28.07;;
142;SDS011;63667;49.046;8.468;2024-01-30T00:15:20;61.63;;;27.50;;
142;SDS011;63667;49.046;8.468;2024-01-30T00:17:46;54.73;;;25.00;;
142;SDS011;63667;49.046;8.468;2024-01-30T00:20:13;55.77;;;24.60;;
142;SDS011;63667;49.046;8.468;2024-01-30T00:22:40;46.60;;;23.30;;
142;SDS011;63667;49.046;8.468;2024-01-30T00:25:06;49.07;;;21.60;;
142;SDS011;63667;49.046;8.468;2024-01-30T00:27:33;55.00;;;22.00;;
142;SDS011;63667;49.046;8.468;2024-01-30T00:29:59;46.80;;;22.67;;
142;SDS011;63667;49.046;8.468;2024-01-30T00:32:25;47.43;;;22.10;;
142;SDS011;63667;49.046;8.468;2024-01-30T00:34:52;68.73;;;24.57;;
142;SDS011;63667;49.046;8.468;2024-01-30T00:37:18;49.77;;;22.90;;
142;SDS011;63667;49.046;8.468;2024-01-30T00:39:45;49.37;;;22.30;;
142;SDS011;63667;49.046;8.468;2024-01-30T00:42:11;48.33;;;23.20;;
142;SDS011;63667;49.046;8.468;2024-01-30T00:44:38;50.40;;;22.13;;
142;SDS011;63667;49.046;8.468;2024-01-30T00:47:04;50.67;;;23.70;;
142;SDS011;63667;49.046;8.468;2024-01-30T00:49:31;43.23;;;21.13;;
142;SDS011;63667;49.046;8.468;2024-01-30T00:51:57;48.00;;;23.53;;
142;SDS011;63667;49.046;8.468;2024-01-30T00:54:24;59.03;;;25.47;;
142;SDS011;63667;49.046;8.468;2024-01-30T00:56:50;49.87;;;24.10;;
142;SDS011;63667;49.046;8.468;2024-01-30T00:59:17;50.10;;;22.80;;
142;SDS011;63667;49.046;8.468;2024-01-30T01:01:43;47.73;;;23.03;;
142;SDS011;63667;49.046;8.468;2024-01-30T01:04:10;52.73;;;24.93;;
142;SDS011;63667;49.046;8.468;2024-01-30T01:06:36;58.03;;;25.47;;
142;SDS011;63667;49.046;8.468;2024-01-30T01:09:03;54.83;;;25.77;;
142;SDS011;63667;49.046;8.468;2024-01-30T01:11:29;54.30;;;25.70;;
142;SDS011;63667;49.046;8.468;2024-01-30T01:13:56;56.87;;;26.47;;
142;SDS011;63667;49.046;8.468;2024-01-30T01:16:23;57.30;;;26.47;;
142;SDS011;63667;49.046;8.468;2024-01-30T01:18:49;61.77;;;27.20;;
142;SDS011;63667;49.046;8.468;2024-01-30T01:21:17;58.27;;;25.23;;
142;SDS011;63667;49.046;8.468;2024-01-30T01:23:43;46.50;;;22.00;;
142;SDS011;63667;49.046;8.468;2024-01-30T01:26:09;49.80;;;22.67;;
142;SDS011;63667;49.046;8.468;2024-01-30T01:28:36;49.83;;;21.87;;
142;SDS011;63667;49.046;8.468;2024-01-30T01:31:02;46.40;;;22.57;;
142;SDS011;63667;49.046;8.468;2024-01-30T01:33:33;44.67;;;21.10;;
142;SDS011;63667;49.046;8.468;2024-01-30T01:36:02;46.80;;;21.20;;
142;SDS011;63667;49.046;8.468;2024-01-30T01:38:28;53.67;;;21.97;;
142;SDS011;63667;49.046;8.468;2024-01-30T01:40:55;44.50;;;22.03;;
142;SDS011;63667;49.046;8.468;2024-01-30T01:43:21;48.90;;;22.30;;
142;SDS011;63667;49.046;8.468;2024-01-30T01:45:48;40.60;;;20.33;;
142;SDS011;63667;49.046;8.468;2024-01-30T01:48:14;45.90;;;22.37;;
142;SDS011;63667;49.046;8.468;2024-01-30T01:50:41;43.37;;;19.97;;
142;SDS011;63667;49.046;8.468;2024-01-30T01:53:08;54.00;;;22.90;;
142;SDS011;63667;49.046;8.468;2024-01-30T01:55:35;49.57;;;22.67;;
142;SDS011;63667;49.046;8.468;2024-01-30T01:58:02;47.57;;;21.97;;
142;SDS011;63667;49.046;8.468;2024-01-30T02:00:28;50.97;;;23.17;;
142;SDS011;63667;49.046;8.468;2024-01-30T02:02:55;47.80;;;23.00;;
142;SDS011;63667;49.046;8.468;2024-01-30T02:05:22;44.97;;;21.07;;
142;SDS011;63667;49.046;8.468;2024-01-30T02:07:50;49.63;;;23.13;;
142;SDS011;63667;49.046;8.468;2024-01-30T02:10:17;49.20;;;22.47;;
142;SDS011;63667;49.046;8.468;2024-01-30T02:12:44;44.60;;;22.17;;
142;SDS011;63667;49.046;8.468;2024-01-30T02:15:13;46.70;;;22.47;;
142;SDS011;63667;49.046;8.468;2024-01-30T02:17:39;48.03;;;21.43;;
142;SDS011;63667;49.046;8.468;2024-01-30T02:20:06;50.00;;;22.53;;
142;SDS011;63667;49.046;8.468;2024-01-30T02:22:33;47.90;;;21.87;;
142;SDS011;63667;49.046;8.468;2024-01-30T02:25:00;46.43;;;21.00;;
142;SDS011;63667;49.046;8.468;2024-01-30T02:27:27;50.50;;;22.40;;
142;SDS011;63667;49.046;8.468;2024-01-30T02:29:54;45.40;;;22.57;;
142;SDS011;63667;49.046;8.468;2024-01-30T02:32:21;49.60;;;22.07;;
142;SDS011;63667;49.046;8.468;2024-01-30T02:34:47;44.07;;;21.87;;
142;SDS011;63667;49.046;8.468;2024-01-30T02:37:14;45.07;;;23.00;;
142;SDS011;63667;49.046;8.468;2024-01-30T02:39:40;52.97;;;21.97;;
142;SDS011;63667;49.046;8.468;2024-01-30T02:42:07;46.93;;;21.97;;
142;SDS011;63667;49.046;8.468;2024-01-30T02:44:33;63.43;;;21.33;;
142;SDS011;63667;49.046;8.468;2024-01-30T02:47:00;46.90;;;22.53;;
142;SDS011;63667;49.046;8.468;2024-01-30T02:49:26;40.73;;;21.43;;
142;SDS011;63667;49.046;8.468;2024-01-30T02:51:53;45.47;;;21.47;;
142;SDS011;63667;49.046;8.468;2024-01-30T02:54:20;48.80;;;22.70;;
142;SDS011;63667;49.046;8.468;2024-01-30T02:56:47;51.43;;;22.03;;
142;SDS011;63667;49.046;8.468;2024-01-30T02:59:13;50.93;;;22.73;;
142;SDS011;63667;49.046;8.468;2024-01-30T03:01:42;44.87;;;21.70;;
142;SDS011;63667;49.046;8.468;2024-01-30T03:04:09;44.60;;;20.50;;
142;SDS011;63667;49.046;8.468;2024-01-30T03:06:36;48.67;;;22.53;;
142;SDS011;63667;49.046;8.468;2024-01-30T03:09:03;42.87;;;22.20;;
142;SDS011;63667;49.046;8.468;2024-01-30T03:11:30;52.90;;;22.67;;
142;SDS011;63667;49.046;8.468;2024-01-30T03:13:57;49.30;;;22.63;;
142;SDS011;63667;49.046;8.468;2024-01-30T03:16:23;51.70;;;24.67;;
142;SDS011;63667;49.046;8.468;2024-01-30T03:18:49;49.97;;;23.60;;
142;SDS011;63667;49.046;8.468;2024-01-30T03:21:16;54.93;;;22.90;;
142;SDS011;63667;49.046;8.468;2024-01-30T03:23:42;54.67;;;24.57;;
142;SDS011;63667;49.046;8.468;2024-01-30T03:26:09;53.97;;;23.17;;
142;SDS011;63667;49.046;8.468;2024-01-30T03:28:36;49.10;;;23.57;;
142;SDS011;63667;49.046;8.468;2024-01-30T03:31:02;51.80;;;24.10;;
142;SDS011;63667;49.046;8.468;2024-01-30T03:33:29;49.40;;;22.90;;
142;SDS011;63667;49.046;8.468;2024-01-30T03:35:55;45.03;;;20.80;;
142;SDS011;63667;49.046;8.468;2024-01-30T03:38:22;53.20;;;22.77;;
142;SDS011;63667;49.046;8.468;2024-01-30T03:40:48;50.37;;;23.37;;
142;SDS011;63667;49.046;8.468;2024-01-30T03:43:15;52.20;;;22.60;;
142;SDS011;63667;49.046;8.468;2024-01-30T03:45:41;49.87;;;21.70;;
142;SDS011;63667;49.046;8.468;2024-01-30T03:48:07;49.10;;;21.33;;
142;SDS011;63667;49.046;8.468;2024-01-30T03:50:34;46.97;;;21.50;;
142;SDS011;63667;49.046;8.468;2024-01-30T03:53:00;46.03;;;20.27;;
142;SDS011;63667;49.046;8.468;2024-01-30T03:55:27;42.30;;;20.97;;
142;SDS011;63667;49.046;8.468;2024-01-30T03:57:55;40.63;;;19.57;;
142;SDS011;63667;49.046;8.468;2024-01-30T04:00:21;46.30;;;19.90;;
142;SDS011;63667;49.046;8.468;2024-01-30T04:02:47;48.73;;;20.23;;
142;SDS011;63667;49.046;8.468;2024-01-30T04:05:16;40.87;;;19.30;;
142;SDS011;63667;49.046;8.468;2024-01-30T04:07:43;41.73;;;19.43;;
142;SDS011;63667;49.046;8.468;2024-01-30T04:10:09;49.60;;;19.43;;
142;SDS011;63667;49.046;8.468;2024-01-30T04:12:36;45.70;;;18.80;;
142;SDS011;63667;49.046;8.468;2024-01-30T04:15:02;39.50;;;17.63;;
142;SDS011;63667;49.046;8.468;2024-01-30T04:17:29;43.03;;;18.43;;
142;SDS011;63667;49.046;8.468;2024-01-30T04:19:55;45.10;;;19.07;;
142;SDS011;63667;49.046;8.468;2024-01-30T04:22:22;45.33;;;19.17;;
142;SDS011;63667;49.046;8.468;2024-01-30T04:24:49;39.43;;;18.97;;
142;SDS011;63667;49.046;8.468;2024-01-30T04:27:15;38.17;;;18.43;;
142;SDS011;63667;49.046;8.468;2024-01-30T04:29:41;37.17;;;17.97;;
142;SDS011;63667;49.046;8.468;2024-01-30T04:32:08;42.23;;;19.20;;
142;SDS011;63667;49.046;8.468;2024-01-30T04:34:36;44.10;;;19.90;;
142;SDS011;63667;49.046;8.468;2024-01-30T04:37:02;43.10;;;20.00;;
142;SDS011;63667;49.046;8.468;2024-01-30T04:39:29;48.53;;;21.27;;
142;SDS011;63667;49.046;8.468;2024-01-30T04:41:55;47.97;;;21.53;;
142;SDS011;63667;49.046;8.468;2024-01-30T04:44:22;54.20;;;21.90;;
142;SDS011;63667;49.046;8.468;2024-01-30T04:46:48;49.90;;;20.73;;
142;SDS011;63667;49.046;8.468;2024-01-30T04:49:15;45.87;;;21.50;;
142;SDS011;63667;49.046;8.468;2024-01-30T04:51:41;59.20;;;21.90;;
142;SDS011;63667;49.046;8.468;2024-01-30T04:54:08;51.07;;;20.70;;
142;SDS011;63667;49.046;8.468;2024-01-30T04:56:34;42.47;;;21.33;;
142;SDS011;63667;49.046;8.468;2024-01-30T04:59:02;44.40;;;21.00;;
142;SDS011;63667;49.046;8.468;2024-01-30T05:01:28;37.00;;;19.87;;
142;SDS011;63667;49.046;8.468;2024-01-30T05:03:55;43.70;;;20.70;;
142;SDS011;63667;49.046;8.468;2024-01-30T05:06:25;49.97;;;21.93;;
142;SDS011;63667;49.046;8.468;2024-01-30T05:08:51;44.93;;;20.23;;
142;SDS011;63667;49.046;8.468;2024-01-30T05:11:18;48.67;;;21.47;;
142;SDS011;63667;49.046;8.468;2024-01-30T05:13:44;40.80;;;20.03;;
142;SDS011;63667;49.046;8.468;2024-01-30T05:16:11;41.73;;;19.00;;
142;SDS011;63667;49.046;8.468;2024-01-30T05:18:37;37.03;;;18.77;;
142;SDS011;63667;49.046;8.468;2024-01-30T05:21:05;41.57;;;19.07;;
142;SDS011;63667;49.046;8.468;2024-01-30T05:23:31;41.27;;;17.43;;
142;SDS011;63667;49.046;8.468;2024-01-30T05:25:58;37.53;;;18.40;;
142;SDS011;63667;49.046;8.468;2024-01-30T05:28:26;39.70;;;17.70;;
142;SDS011;63667;49.046;8.468;2024-01-30T05:30:52;36.00;;;17.20;;
142;SDS011;63667;49.046;8.468;2024-01-30T05:33:19;33.97;;;16.80;;
142;SDS011;63667;49.046;8.468;2024-01-30T05:35:45;35.30;;;16.73;;
142;SDS011;63667;49.046;8.468;2024-01-30T05:38:12;36.23;;;17.30;;
142;SDS011;63667;49.046;8.468;2024-01-30T05:40:39;30.10;;;16.33;;
142;SDS011;63667;49.046;8.468;2024-01-30T05:43:05;35.00;;;16.60;;
142;SDS011;63667;49.046;8.468;2024-01-30T05:45:33;35.63;;;15.90;;
142;SDS011;63667;49.046;8.468;2024-01-30T05:48:01;49.73;;;17.43;;
142;SDS011;63667;49.046;8.468;2024-01-30T05:50:27;35.97;;;16.60;;
142;SDS011;63667;49.046;8.468;2024-01-30T05:52:54;34.90;;;15.50;;
142;SDS011;63667;49.046;8.468;2024-01-30T05:55:20;33.50;;;16.97;;
142;SDS011;63667;49.046;8.468;2024-01-30T05:57:47;35.73;;;16.50;;
142;SDS011;63667;49.046;8.468;2024-01-30T06:00:13;30.90;;;15.63;;
142;SDS011;63667;49.046;8.468;2024-01-30T06:02:40;33.57;;;16.27;;
142;SDS011;63667;49.046;8.468;2024-01-30T06:05:07;32.00;;;15.23;;
142;SDS011;63667;49.046;8.468;2024-01-30T06:07:33;33.87;;;16.30;;
142;SDS011;63667;49.046;8.468;2024-01-30T06:10:00;39.13;;;17.17;;
142;SDS011;63667;49.046;8.468;2024-01-30T06:12:27;33.87;;;17.23;;
142;SDS011;63667;49.046;8.468;2024-01-30T06:14:54;35.40;;;17.90;;
142;SDS011;63667;49.046;8.468;2024-01-30T06:17:22;34.57;;;17.10;;
142;SDS011;63667;49.046;8.468;2024-01-30T06:19:49;34.77;;;17.20;;
142;SDS011;63667;49.046;8.468;2024-01-30T06:22:15;34.20;;;17.30;;
142;SDS011;63667;49.046;8.468;2024-01-30T06:24:42;48.43;;;19.90;;
142;SDS011;63667;49.046;8.468;2024-01-30T06:27:10;42.90;;;17.80;;
142;SDS011;63667;49.046;8.468;2024-01-30T06:29:37;41.10;;;18.00;;
142;SDS011;63667;49.046;8.468;2024-01-30T06:32:03;39.87;;;18.53;;
142;SDS011;63667;49.046;8.468;2024-01-30T06:34:30;37.87;;;19.37;;
142;SDS011;63667;49.046;8.468;2024-01-30T06:36:56;41.50;;;18.70;;
142;SDS011;63667;49.046;8.468;2024-01-30T06:39:23;42.67;;;18.70;;
142;SDS011;63667;49.046;8.468;2024-01-30T06:41:50;41.20;;;19.37;;
142;SDS011;63667;49.046;8.468;2024-01-30T06:44:16;38.83;;;18.90;;
142;SDS011;63667;49.046;8.468;2024-01-30T06:46:43;50.40;;;23.07;;
142;SDS011;63667;49.046;8.468;2024-01-30T06:49:10;52.80;;;22.30;;
142;SDS011;63667;49.046;8.468;2024-01-30T06:51:37;60.87;;;25.57;;
142;SDS011;63667;49.046;8.468;2024-01-30T06:54:04;50.63;;;22.70;;
142;SDS011;63667;49.046;8.468;2024-01-30T06:56:30;54.57;;;23.27;;
142;SDS011;63667;49.046;8.468;2024-01-30T06:58:57;44.40;;;21.00;;
142;SDS011;63667;49.046;8.468;2024-01-30T07:01:28;46.07;;;20.70;;
142;SDS011;63667;49.046;8.468;2024-01-30T07:03:55;47.77;;;21.00;;
142;SDS011;63667;49.046;8.468;2024-01-30T07:06:21;42.70;;;21.17;;
142;SDS011;63667;49.046;8.468;2024-01-30T07:08:48;50.70;;;21.73;;
142;SDS011;63667;49.046;8.468;2024-01-30T07:11:24;40.63;;;20.80;;
142;SDS011;63667;49.046;8.468;2024-01-30T07:13:51;49.90;;;22.10;;
142;SDS011;63667;49.046;8.468;2024-01-30T07:16:17;40.80;;;19.03;;
142;SDS011;63667;49.046;8.468;2024-01-30T07:18:44;46.87;;;19.77;;
142;SDS011;63667;49.046;8.468;2024-01-30T07:21:11;38.07;;;18.70;;
142;SDS011;63667;49.046;8.468;2024-01-30T07:23:37;43.30;;;19.73;;
142;SDS011;63667;49.046;8.468;2024-01-30T07:26:04;47.50;;;20.07;;
142;SDS011;63667;49.046;8.468;2024-01-30T07:28:32;46.90;;;20.43;;
142;SDS011;63667;49.046;8.468;2024-01-30T07:30:59;45.27;;;19.70;;
142;SDS011;63667;49.046;8.468;2024-01-30T07:33:25;40.00;;;19.90;;
142;SDS011;63667;49.046;8.468;2024-01-30T07:35:54;45.93;;;19.73;;
142;SDS011;63667;49.046;8.468;2024-01-30T07:38:21;42.37;;;20.10;;
142;SDS011;63667;49.046;8.468;2024-01-30T07:40:47;51.07;;;20.33;;
142;SDS011;63667;49.046;8.468;2024-01-30T07:43:14;38.73;;;17.83;;
142;SDS011;63667;49.046;8.468;2024-01-30T07:45:40;34.00;;;17.40;;
142;SDS011;63667;49.046;8.468;2024-01-30T07:48:07;31.73;;;16.87;;
142;SDS011;63667;49.046;8.468;2024-01-30T07:50:33;41.40;;;18.07;;
142;SDS011;63667;49.046;8.468;2024-01-30T07:53:01;39.30;;;18.60;;
142;SDS011;63667;49.046;8.468;2024-01-30T07:55:28;52.63;;;19.07;;
142;SDS011;63667;49.046;8.468;2024-01-30T07:57:57;45.83;;;21.53;;
142;SDS011;63667;49.046;8.468;2024-01-30T08:00:24;42.07;;;19.53;;
142;SDS011;63667;49.046;8.468;2024-01-30T08:02:51;41.30;;;20.63;;
142;SDS011;63667;49.046;8.468;2024-01-30T08:05:19;51.13;;;19.63;;
142;SDS011;63667;49.046;8.468;2024-01-30T08:07:48;41.70;;;18.63;;
142;SDS011;63667;49.046;8.468;2024-01-30T08:10:14;46.20;;;20.00;;
142;SDS011;63667;49.046;8.468;2024-01-30T08:12:41;35.80;;;17.83;;
142;SDS011;63667;49.046;8.468;2024-01-30T08:15:07;38.07;;;18.00;;
142;SDS011;63667;49.046;8.468;2024-01-30T08:17:34;36.87;;;17.10;;
142;SDS011;63667;49.046;8.468;2024-01-30T08:20:00;37.80;;;17.00;;
142;SDS011;63667;49.046;8.468;2024-01-30T08:22:29;37.77;;;16.17;;
142;SDS011;63667;49.046;8.468;2024-01-30T08:24:55;33.80;;;15.30;;
142;SDS011;63667;49.046;8.468;2024-01-30T08:27:21;29.93;;;13.83;;
142;SDS011;63667;49.046;8.468;2024-01-30T08:29:48;25.40;;;13.83;;
142;SDS011;63667;49.046;8.468;2024-01-30T08:32:15;33.33;;;13.13;;
142;SDS011;63667;49.046;8.468;2024-01-30T08:34:42;28.57;;;14.07;;
142;SDS011;63667;49.046;8.468;2024-01-30T08:37:08;30.70;;;14.07;;
142;SDS011;63667;49.046;8.468;2024-01-30T08:39:35;25.17;;;12.33;;
142;SDS011;63667;49.046;8.468;2024-01-30T08:42:01;25.60;;;12.13;;
142;SDS011;63667;49.046;8.468;2024-01-30T08:44:28;22.60;;;12.30;;
142;SDS011;63667;49.046;8.468;2024-01-30T08:46:54;24.47;;;10.90;;
142;SDS011;63667;49.046;8.468;2024-01-30T08:49:21;19.60;;;10.30;;
142;SDS011;63667;49.046;8.468;2024-01-30T08:51:48;16.53;;;9.50;;
142;SDS011;63667;49.046;8.468;2024-01-30T08:54:15;27.10;;;10.07;;
142;SDS011;63667;49.046;8.468;2024-01-30T08:56:42;26.40;;;11.07;;
142;SDS011;63667;49.046;8.468;2024-01-30T08:59:09;20.63;;;10.20;;
142;SDS011;63667;49.046;8.468;2024-01-30T09:01:38;21.73;;;10.40;;
142;SDS011;63667;49.046;8.468;2024-01-30T09:04:04;24.30;;;10.97;;
142;SDS011;63667;49.046;8.468;2024-01-30T09:06:31;28.53;;;11.80;;
142;SDS011;63667;49.046;8.468;2024-01-30T09:08:57;27.17;;;11.37;;
142;SDS011;63667;49.046;8.468;2024-01-30T09:11:24;25.30;;;10.17;;
142;SDS011;63667;49.046;8.468;2024-01-30T09:13:50;20.60;;;10.60;;
142;SDS011;63667;49.046;8.468;2024-01-30T09:16:18;22.57;;;10.87;;
142;SDS011;63667;49.046;8.468;2024-01-30T09:18:45;24.93;;;10.87;;
142;SDS011;63667;49.046;8.468;2024-01-30T09:21:11;27.37;;;9.90;;
142;SDS011;63667;49.046;8.468;2024-01-30T09:23:38;18.10;;;9.90;;
142;SDS011;63667;49.046;8.468;2024-01-30T09:26:04;25.57;;;10.23;;
142;SDS011;63667;49.046;8.468;2024-01-30T09:28:30;18.47;;;9.60;;
142;SDS011;63667;49.046;8.468;2024-01-30T09:30:57;16.10;;;9.90;;
142;SDS011;63667;49.046;8.468;2024-01-30T09:33:23;21.90;;;10.10;;
142;SDS011;63667;49.046;8.468;2024-01-30T09:35:50;17.80;;;10.03;;
142;SDS011;63667;49.046;8.468;2024-01-30T09:38:17;19.43;;;10.37;;
142;SDS011;63667;49.046;8.468;2024-01-30T09:40:44;20.70;;;10.50;;
142;SDS011;63667;49.046;8.468;2024-01-30T09:43:11;18.17;;;10.30;;
142;SDS011;63667;49.046;8.468;2024-01-30T09:45:41;19.63;;;10.80;;
142;SDS011;63667;49.046;8.468;2024-01-30T09:48:08;19.10;;;10.43;;
142;SDS011;63667;49.046;8.468;2024-01-30T09:50:35;18.20;;;10.33;;
142;SDS011;63667;49.046;8.468;2024-01-30T09:53:02;20.40;;;10.77;;
142;SDS011;63667;49.046;8.468;2024-01-30T09:55:30;19.40;;;11.37;;
142;SDS011;63667;49.046;8.468;2024-01-30T09:57:56;23.83;;;12.33;;
142;SDS011;63667;49.046;8.468;2024-01-30T10:00:22;25.77;;;12.70;;
142;SDS011;63667;49.046;8.468;2024-01-30T10:02:52;23.10;;;12.83;;
142;SDS011;63667;49.046;8.468;2024-01-30T10:05:19;29.80;;;12.73;;
142;SDS011;63667;49.046;8.468;2024-01-30T10:07:56;24.77;;;13.13;;
142;SDS011;63667;49.046;8.468;2024-01-30T10:10:23;35.63;;;14.97;;
142;SDS011;63667;49.046;8.468;2024-01-30T10:12:50;25.97;;;13.47;;
142;SDS011;63667;49.046;8.468;2024-01-30T10:15:17;26.40;;;14.73;;
142;SDS011;63667;49.046;8.468;2024-01-30T10:17:44;31.90;;;15.00;;
142;SDS011;63667;49.046;8.468;2024-01-30T10:20:10;30.17;;;14.40;;
142;SDS011;63667;49.046;8.468;2024-01-30T10:22:37;27.20;;;14.47;;
142;SDS011;63667;49.046;8.468;2024-01-30T10:25:04;32.70;;;15.57;;
142;SDS011;63667;49.046;8.468;2024-01-30T10:27:31;34.40;;;14.80;;
142;SDS011;63667;49.046;8.468;2024-01-30T10:29:57;37.23;;;16.73;;
142;SDS011;63667;49.046;8.468;2024-01-30T10:32:24;33.30;;;16.73;;
142;SDS011;63667;49.046;8.468;2024-01-30T10:34:52;33.77;;;17.27;;
142;SDS011;63667;49.046;8.468;2024-01-30T10:37:18;36.07;;;18.03;;
142;SDS011;63667;49.046;8.468;2024-01-30T10:39:46;38.03;;;18.17;;
142;SDS011;63667;49.046;8.468;2024-01-30T10:42:13;38.63;;;18.03;;
142;SDS011;63667;49.046;8.468;2024-01-30T10:45:02;38.57;;;18.83;;
142;SDS011;63667;49.046;8.468;2024-01-30T10:47:28;45.93;;;18.67;;
142;SDS011;63667;49.046;8.468;2024-01-30T10:49:55;40.90;;;19.93;;
142;SDS011;63667;49.046;8.468;2024-01-30T10:52:24;35.43;;;17.60;;
142;SDS011;63667;49.046;8.468;2024-01-30T10:54:52;40.20;;;19.30;;
142;SDS011;63667;49.046;8.468;2024-01-30T10:57:18;35.40;;;16.83;;
142;SDS011;63667;49.046;8.468;2024-01-30T10:59:45;37.00;;;17.63;;
142;SDS011;63667;49.046;8.468;2024-01-30T11:02:13;33.83;;;17.07;;
142;SDS011;63667;49.046;8.468;2024-01-30T11:04:41;35.37;;;16.37;;
142;SDS011;63667;49.046;8.468;2024-01-30T11:07:14;40.30;;;17.20;;
142;SDS011;63667;49.046;8.468;2024-01-30T11:09:48;31.53;;;15.67;;
142;SDS011;63667;49.046;8.468;2024-01-30T11:12:14;30.97;;;16.80;;
142;SDS011;63667;49.046;8.468;2024-01-30T11:14:41;30.87;;;16.90;;
142;SDS011;63667;49.046;8.468;2024-01-30T11:17:09;33.97;;;16.70;;
142;SDS011;63667;49.046;8.468;2024-01-30T11:19:38;35.70;;;18.23;;
142;SDS011;63667;49.046;8.468;2024-01-30T11:22:06;33.90;;;16.80;;
142;SDS011;63667;49.046;8.468;2024-01-30T11:24:39;32.80;;;16.60;;
142;SDS011;63667;49.046;8.468;2024-01-30T11:27:08;26.63;;;15.40;;
142;SDS011;63667;49.046;8.468;2024-01-30T11:29:38;30.60;;;16.17;;
142;SDS011;63667;49.046;8.468;2024-01-30T11:32:06;29.07;;;16.07;;
142;SDS011;63667;49.046;8.468;2024-01-30T11:34:32;28.67;;;15.13;;
142;SDS011;63667;49.046;8.468;2024-01-30T11:37:03;26.63;;;14.63;;
142;SDS011;63667;49.046;8.468;2024-01-30T11:39:30;24.67;;;14.73;;
142;SDS011;63667;49.046;8.468;2024-01-30T11:41:56;26.27;;;15.37;;
142;SDS011;63667;49.046;8.468;2024-01-30T11:44:23;24.07;;;14.30;;
142;SDS011;63667;49.046;8.468;2024-01-30T11:46:51;22.20;;;13.60;;
142;SDS011;63667;49.046;8.468;2024-01-30T11:49:18;22.87;;;14.53;;
142;SDS011;63667;49.046;8.468;2024-01-30T11:51:48;27.10;;;14.13;;
142;SDS011;63667;49.046;8.468;2024-01-30T11:54:15;28.47;;;16.10;;
142;SDS011;63667;49.046;8.468;2024-01-30T11:56:42;35.97;;;16.07;;
142;SDS011;63667;49.046;8.468;2024-01-30T11:59:09;28.47;;;14.87;;
142;SDS011;63667;49.046;8.468;2024-01-30T12:01:36;27.20;;;15.67;;
142;SDS011;63667;49.046;8.468;2024-01-30T12:04:02;27.20;;;14.97;;
142;SDS011;63667;49.046;8.468;2024-01-30T12:06:32;34.17;;;15.17;;
142;SDS011;63667;49.046;8.468;2024-01-30T12:09:00;28.37;;;14.13;;
142;SDS011;63667;49.046;8.468;2024-01-30T12:11:29;23.90;;;15.30;;
142;SDS011;63667;49.046;8.468;2024-01-30T12:13:56;26.33;;;13.70;;
142;SDS011;63667;49.046;8.468;2024-01-30T12:16:23;22.30;;;13.60;;
142;SDS011;63667;49.046;8.468;2024-01-30T12:18:49;27.47;;;14.80;;
142;SDS011;63667;49.046;8.468;2024-01-30T12:21:25;27.07;;;15.20;;
142;SDS011;63667;49.046;8.468;2024-01-30T12:23:52;26.77;;;14.07;;
142;SDS011;63667;49.046;8.468;2024-01-30T12:26:18;24.10;;;14.90;;
142;SDS011;63667;49.046;8.468;2024-01-30T12:28:53;20.93;;;13.63;;
142;SDS011;63667;49.046;8.468;2024-01-30T12:31:31;24.20;;;14.40;;
142;SDS011;63667;49.046;8.468;2024-01-30T12:34:01;25.50;;;13.43;;
142;SDS011;63667;49.046;8.468;2024-01-30T12:36:28;26.57;;;14.87;;
142;SDS011;63667;49.046;8.468;2024-01-30T12:38:57;26.70;;;14.27;;
142;SDS011;63667;49.046;8.468;2024-01-30T12:41:24;23.70;;;13.83;;
142;SDS011;63667;49.046;8.468;2024-01-30T12:43:54;28.60;;;14.53;;
142;SDS011;63667;49.046;8.468;2024-01-30T12:46:20;25.57;;;15.07;;
142;SDS011;63667;49.046;8.468;2024-01-30T12:48:48;28.80;;;14.67;;
142;SDS011;63667;49.046;8.468;2024-01-30T12:51:15;32.20;;;16.70;;
142;SDS011;63667;49.046;8.468;2024-01-30T12:53:41;24.73;;;15.23;;
142;SDS011;63667;49.046;8.468;2024-01-30T12:56:08;27.47;;;16.00;;
142;SDS011;63667;49.046;8.468;2024-01-30T12:58:34;27.10;;;15.10;;
142;SDS011;63667;49.046;8.468;2024-01-30T13:01:01;33.23;;;17.40;;
142;SDS011;63667;49.046;8.468;2024-01-30T13:03:27;31.97;;;15.70;;
142;SDS011;63667;49.046;8.468;2024-01-30T13:05:54;36.17;;;17.20;;
142;SDS011;63667;49.046;8.468;2024-01-30T13:08:21;32.50;;;16.80;;
142;SDS011;63667;49.046;8.468;2024-01-30T13:10:47;34.20;;;17.63;;
142;SDS011;63667;49.046;8.468;2024-01-30T13:13:14;30.00;;;16.43;;
142;SDS011;63667;49.046;8.468;2024-01-30T13:15:41;41.47;;;17.87;;
142;SDS011;63667;49.046;8.468;2024-01-30T13:18:07;33.00;;;17.03;;
142;SDS011;63667;49.046;8.468;2024-01-30T13:20:34;35.33;;;16.93;;
142;SDS011;63667;49.046;8.468;2024-01-30T13:23:00;30.17;;;16.77;;
142;SDS011;63667;49.046;8.468;2024-01-30T13:25:27;30.57;;;16.80;;
142;SDS011;63667;49.046;8.468;2024-01-30T13:27:53;28.10;;;16.90;;
142;SDS011;63667;49.046;8.468;2024-01-30T13:30:19;29.53;;;16.10;;
142;SDS011;63667;49.046;8.468;2024-01-30T13:32:46;28.53;;;15.63;;
142;SDS011;63667;49.046;8.468;2024-01-30T13:35:12;31.17;;;15.73;;
142;SDS011;63667;49.046;8.468;2024-01-30T13:37:39;30.50;;;15.53;;
142;SDS011;63667;49.046;8.468;2024-01-30T13:40:07;30.50;;;16.20;;
142;SDS011;63667;49.046;8.468;2024-01-30T13:42:34;34.83;;;16.33;;
142;SDS011;63667;49.046;8.468;2024-01-30T13:45:01;32.57;;;15.47;;
142;SDS011;63667;49.046;8.468;2024-01-30T13:47:27;29.97;;;16.03;;
142;SDS011;63667;49.046;8.468;2024-01-30T13:49:54;37.33;;;18.10;;
142;SDS011;63667;49.046;8.468;2024-01-30T13:52:20;32.00;;;16.20;;
142;SDS011;63667;49.046;8.468;2024-01-30T13:54:47;28.23;;;14.83;;
142;SDS011;63667;49.046;8.468;2024-01-30T13:57:14;27.93;;;15.50;;
142;SDS011;63667;49.046;8.468;2024-01-30T13:59:40;33.60;;;16.10;;
142;SDS011;63667;49.046;8.468;2024-01-30T14:02:07;29.00;;;14.60;;
142;SDS011;63667;49.046;8.468;2024-01-30T14:04:35;35.30;;;16.00;;
142;SDS011;63667;49.046;8.468;2024-01-30T14:07:03;30.00;;;15.03;;
142;SDS011;63667;49.046;8.468;2024-01-30T14:09:31;30.70;;;14.03;;
142;SDS011;63667;49.046;8.468;2024-01-30T14:11:58;27.93;;;14.90;;
142;SDS011;63667;49.046;8.468;2024-01-30T14:14:24;29.60;;;15.63;;
142;SDS011;63667;49.046;8.468;2024-01-30T14:16:51;29.37;;;15.47;;
142;SDS011;63667;49.046;8.468;2024-01-30T14:19:17;32.10;;;16.70;;
142;SDS011;63667;49.046;8.468;2024-01-30T14:21:44;31.33;;;16.97;;
142;SDS011;63667;49.046;8.468;2024-01-30T14:24:10;28.30;;;14.83;;
142;SDS011;63667;49.046;8.468;2024-01-30T14:26:37;30.17;;;14.23;;
142;SDS011;63667;49.046;8.468;2024-01-30T14:29:03;30.30;;;14.27;;
142;SDS011;63667;49.046;8.468;2024-01-30T14:31:30;20.60;;;13.33;;
142;SDS011;63667;49.046;8.468;2024-01-30T14:33:56;25.50;;;14.30;;
142;SDS011;63667;49.046;8.468;2024-01-30T14:36:23;30.60;;;16.03;;
142;SDS011;63667;49.046;8.468;2024-01-30T14:38:53;33.30;;;14.20;;
142;SDS011;63667;49.046;8.468;2024-01-30T14:41:21;28.17;;;15.40;;
142;SDS011;63667;49.046;8.468;2024-01-30T14:43:48;28.13;;;15.07;;
142;SDS011;63667;49.046;8.468;2024-01-30T14:46:14;28.23;;;15.10;;